Time;durP1;ratioP1;P1;durP2;ratioP2;P2;SDS_P1;SDS_P2;PMS_P1;PMS_P2;Temp;Humidity;BMP_temperature;BMP_pressure;BME280_temperature;BME280_humidity;BME280_pressure;Samples;Min_cycle;Max_cycle;Signal;HPM_P1;HPM_P2
2023/06/22 00:01:30;;;;;;;;;;;;;;;22.78;38.35;100897.50;4940203;28;99773;-76
2023/06/22 00:03:57;;;;;;;;;;;;;;;22.74;38.30;100898.53;4946206;27;99365;-76
2023/06/22 00:06:23;;;;;;;;;;;;;;;22.70;38.27;100901.13;4932190;28;98213;-72
2023/06/22 00:08:50;;;;;;;;;;;;;;;22.65;38.34;100909.59;4931046;28;98214;-76
2023/06/22 00:11:16;;;;;;;;;;;;;;;22.60;38.34;100912.56;4948054;28;98161;-76
2023/06/22 00:13:43;;;;;;;;;;;;;;;22.54;38.20;100906.47;4931137;27;98096;-71
2023/06/22 00:16:09;;;;;;;;;;;;;;;22.51;38.37;100923.63;4944759;28;98110;-72
2023/06/22 00:18:35;;;;;;;;;;;;;;;22.48;38.41;100924.31;4928121;28;98038;-76
2023/06/22 00:21:01;;;;;;;;;;;;;;;22.45;38.25;100922.22;4930419;28;98145;-75
2023/06/22 00:23:27;;;;;;;;;;;;;;;22.42;38.22;100925.66;4927743;28;98082;-76
2023/06/22 00:25:53;;;;;;;;;;;;;;;22.40;38.45;100927.09;4934201;27;98384;-76
2023/06/22 00:28:20;;;;;;;;;;;;;;;22.38;38.40;100932.94;4929927;28;100189;-76
2023/06/22 00:30:48;;;;;;;;;;;;;;;22.34;38.43;100931.22;4960908;27;98152;-71
2023/06/22 00:33:15;;;;;;;;;;;;;;;22.30;38.44;100933.81;4920797;27;98073;-72
2023/06/22 00:35:42;;;;;;;;;;;;;;;22.26;38.34;100930.13;4933518;28;100185;-72
2023/06/22 00:38:09;;;;;;;;;;;;;;;22.23;38.37;100941.78;4933887;28;98733;-72
2023/06/22 00:40:36;;;;;;;;;;;;;;;22.19;38.39;100936.16;4927375;28;97979;-76
2023/06/22 00:43:02;;;;;;;;;;;;;;;22.17;38.38;100945.88;4920054;28;98240;-76
2023/06/22 00:45:28;;;;;;;;;;;;;;;22.13;38.35;100943.00;4945334;28;98224;-76
2023/06/22 00:47:58;;;;;;;;;;;;;;;22.09;38.42;100950.25;4928521;27;98194;-76
2023/06/22 00:50:28;;;;;;;;;;;;;;;22.04;38.55;100942.22;4930431;27;98014;-71
2023/06/22 00:52:56;;;;;;;;;;;;;;;22.00;38.48;100938.53;4946809;27;98536;-76
2023/06/22 00:55:23;;;;;;;;;;;;;;;21.94;38.52;100929.69;4921633;27;98444;-76
2023/06/22 00:57:55;;;;;;;;;;;;;;;21.89;38.50;100935.38;4930792;27;98444;-72
2023/06/22 01:00:25;;;;;;;;;;;;;;;21.86;38.56;100938.78;4933402;28;99355;-72
2023/06/22 01:02:52;;;;;;;;;;;;;;;21.85;38.43;100934.44;4950230;27;99574;-75
2023/06/22 01:05:20;;;;;;;;;;;;;;;21.82;38.62;100940.59;4951166;28;99024;-71
2023/06/22 01:08:07;;;;;;;;;;;;;;;21.79;38.53;100943.97;4933071;27;98130;-76
2023/06/22 01:10:44;;;;;;;;;;;;;;;21.76;38.52;100945.44;4940178;27;98214;-72
2023/06/22 01:13:27;;;;;;;;;;;;;;;21.75;38.48;100948.53;4963768;28;99412;-72
2023/06/22 01:16:20;;;;;;;;;;;;;;;21.73;38.49;100942.56;4951805;27;98054;-76
2023/06/22 01:18:46;;;;;;;;;;;;;;;21.70;38.51;100943.22;4944385;27;98586;-76
2023/06/22 01:21:17;;;;;;;;;;;;;;;21.66;38.56;100954.06;4949293;28;99189;-72
2023/06/22 01:24:01;;;;;;;;;;;;;;;21.64;38.61;100952.78;4929932;27;98004;-72
2023/06/22 01:26:42;;;;;;;;;;;;;;;21.59;38.65;100948.28;4976034;27;98023;-76
2023/06/22 01:29:11;;;;;;;;;;;;;;;21.55;38.77;100950.88;4923623;27;98567;-76
2023/06/22 01:31:38;;;;;;;;;;;;;;;21.52;38.56;100948.00;4932657;28;99678;-76
2023/06/22 01:34:05;;;;;;;;;;;;;;;21.48;38.60;100960.75;4931819;27;98089;-76
2023/06/22 01:36:32;;;;;;;;;;;;;;;21.45;38.60;100959.47;4934123;27;98247;-77
2023/06/22 01:38:58;;;;;;;;;;;;;;;21.42;38.69;100962.06;4945290;28;97853;-76
2023/06/22 01:41:28;;;;;;;;;;;;;;;21.36;38.70;100946.94;4927553;28;98348;-76
2023/06/22 01:43:55;;;;;;;;;;;;;;;21.29;38.68;100947.41;4946528;28;98269;-72
2023/06/22 01:46:21;;;;;;;;;;;;;;;21.24;38.72;100950.31;4938400;27;99485;-75
2023/06/22 01:48:48;;;;;;;;;;;;;;;21.20;38.73;100946.63;4949013;28;98459;-76
2023/06/22 01:51:21;;;;;;;;;;;;;;;21.13;38.76;100938.91;4934000;28;98286;-72
2023/06/22 01:53:49;;;;;;;;;;;;;;;21.06;38.83;100939.44;4934515;27;98033;-72
2023/06/22 01:56:18;;;;;;;;;;;;;;;21.02;38.80;100937.63;4930540;28;98117;-72
2023/06/22 01:59:14;;;;;;;;;;;;;;;20.99;38.86;100936.38;4947421;27;98080;-76
2023/06/22 02:02:06;;;;;;;;;;;;;;;20.98;38.86;100942.97;4965288;28;98811;-72
2023/06/22 02:04:42;;;;;;;;;;;;;;;20.98;38.89;100933.94;4949263;28;99761;-76
2023/06/22 02:07:12;;;;;;;;;;;;;;;20.97;38.73;100933.13;4946767;28;98239;-71
2023/06/22 02:09:40;;;;;;;;;;;;;;;20.99;38.86;100946.53;4929133;28;98283;-72
2023/06/22 02:12:09;;;;;;;;;;;;;;;20.97;38.78;100930.41;4939468;28;98280;-72
2023/06/22 02:14:35;;;;;;;;;;;;;;;20.97;38.87;100944.09;4946873;28;98221;-72
2023/06/22 02:17:02;;;;;;;;;;;;;;;20.96;38.71;100947.19;4928556;28;98125;-76
2023/06/22 02:19:33;;;;;;;;;;;;;;;20.94;39.02;100947.47;4921364;28;98105;-72
2023/06/22 02:21:59;;;;;;;;;;;;;;;20.94;38.78;100957.66;4924730;27;97918;-72
2023/06/22 02:24:25;;;;;;;;;;;;;;;20.92;38.82;100963.47;4946410;27;97901;-76
2023/06/22 02:26:52;;;;;;;;;;;;;;;20.89;38.88;100946.88;4930477;27;98349;-72
2023/06/22 02:29:19;;;;;;;;;;;;;;;20.83;38.97;100962.69;4927936;27;98205;-72
2023/06/22 02:31:48;;;;;;;;;;;;;;;20.81;38.93;100956.69;4929349;28;97861;-72
2023/06/22 02:34:18;;;;;;;;;;;;;;;20.80;38.94;100966.84;4930957;27;98150;-72
2023/06/22 02:36:50;;;;;;;;;;;;;;;20.79;38.85;100968.00;4942453;27;98072;-72
2023/06/22 02:39:22;;;;;;;;;;;;;;;20.80;38.87;100963.31;4946212;28;97893;-72
2023/06/22 02:41:50;;;;;;;;;;;;;;;20.79;39.00;100961.72;4931479;28;99795;-72
2023/06/22 02:44:16;;;;;;;;;;;;;;;20.80;38.89;100957.84;4931086;27;99071;-72
2023/06/22 02:46:43;;;;;;;;;;;;;;;20.80;38.95;100968.78;4939479;27;98293;-72
2023/06/22 02:49:10;;;;;;;;;;;;;;;20.79;38.81;100961.72;4933152;28;98036;-76
2023/06/22 02:51:41;;;;;;;;;;;;;;;20.79;38.91;100967.19;4934421;27;98036;-76
2023/06/22 02:54:08;;;;;;;;;;;;;;;20.80;38.84;100968.78;4925853;28;98247;-76
2023/06/22 02:56:36;;;;;;;;;;;;;;;20.81;38.84;100968.47;4933099;28;98599;-76
2023/06/22 02:59:02;;;;;;;;;;;;;;;20.80;38.93;100958.66;4934159;28;98543;-76
2023/06/22 03:01:37;;;;;;;;;;;;;;;20.80;38.92;100971.53;4949445;27;98345;-73
2023/06/22 03:04:04;;;;;;;;;;;;;;;20.75;38.89;100968.94;4933894;28;98105;-76
2023/06/22 03:06:31;;;;;;;;;;;;;;;20.72;38.93;100966.88;4925768;28;98143;-76
2023/06/22 03:09:04;;;;;;;;;;;;;;;20.68;38.91;100966.72;4929186;28;98482;-76
2023/06/22 03:11:32;;;;;;;;;;;;;;;20.67;38.95;100967.00;4946404;28;99654;-72
2023/06/22 03:14:01;;;;;;;;;;;;;;;20.65;38.89;100963.81;4929087;28;106822;-76
2023/06/22 03:16:28;;;;;;;;;;;;;;;20.61;39.08;100954.63;4921793;28;97918;-76
2023/06/22 03:18:54;;;;;;;;;;;;;;;20.58;38.89;100951.41;4928106;28;97981;-73
2023/06/22 03:21:23;;;;;;;;;;;;;;;20.53;39.11;100948.03;4922090;28;97801;-76
2023/06/22 03:23:50;;;;;;;;;;;;;;;20.47;39.08;100941.88;4929470;28;98107;-73
2023/06/22 03:26:18;;;;;;;;;;;;;;;20.42;39.03;100939.28;4958818;28;99677;-76
2023/06/22 03:28:45;;;;;;;;;;;;;;;20.38;39.12;100935.59;4928684;28;98310;-72
2023/06/22 03:31:12;;;;;;;;;;;;;;;20.31;39.11;100936.06;4926714;28;98181;-76
2023/06/22 03:33:42;;;;;;;;;;;;;;;20.28;39.43;100935.94;4929927;28;99172;-72
2023/06/22 03:36:09;;;;;;;;;;;;;;;20.26;39.01;100935.44;4941417;28;98423;-76
2023/06/22 03:38:35;;;;;;;;;;;;;;;20.25;39.12;100942.84;4920856;28;97973;-76
2023/06/22 03:41:01;;;;;;;;;;;;;;;20.29;39.20;100937.53;4927293;28;98207;-76
2023/06/22 03:43:31;;;;;;;;;;;;;;;20.30;39.11;100939.13;4938319;28;97963;-73
2023/06/22 03:45:57;;;;;;;;;;;;;;;20.34;39.07;100929.16;4928590;28;98058;-76
2023/06/22 03:48:24;;;;;;;;;;;;;;;20.39;39.01;100933.66;4942459;28;98117;-76
2023/06/22 03:50:50;;;;;;;;;;;;;;;20.44;38.92;100936.25;4935570;28;98788;-74
2023/06/22 03:53:18;;;;;;;;;;;;;;;20.48;39.09;100935.28;4936867;28;97889;-73
2023/06/22 03:55:51;;;;;;;;;;;;;;;20.54;38.97;100946.91;4941125;28;97908;-77
2023/06/22 03:58:20;;;;;;;;;;;;;;;20.61;39.05;100944.47;4924758;28;98167;-76
2023/06/22 04:00:51;;;;;;;;;;;;;;;20.66;39.02;100938.84;4928128;28;99822;-76
2023/06/22 04:03:20;;;;;;;;;;;;;;;20.73;38.98;100946.56;4943795;28;98402;-76
2023/06/22 04:05:47;;;;;;;;;;;;;;;20.79;38.93;100945.28;4929699;28;98181;-76
2023/06/22 04:08:14;;;;;;;;;;;;;;;20.87;38.89;100944.47;4925878;28;98361;-76
2023/06/22 04:10:41;;;;;;;;;;;;;;;20.93;38.84;100934.94;4928151;28;99410;-77
2023/06/22 04:13:07;;;;;;;;;;;;;;;20.97;38.84;100935.88;4928790;28;98043;-73
2023/06/22 04:15:33;;;;;;;;;;;;;;;21.04;38.86;100936.19;4930606;28;98553;-73
2023/06/22 04:18:00;;;;;;;;;;;;;;;21.09;38.84;100951.66;4927509;28;97856;-74
2023/06/22 04:20:26;;;;;;;;;;;;;;;21.16;38.85;100951.16;4930079;28;98559;-77
2023/06/22 04:22:53;;;;;;;;;;;;;;;21.20;38.80;100944.69;4942123;28;98428;-77
2023/06/22 04:25:20;;;;;;;;;;;;;;;21.23;38.81;100948.72;4903506;27;99018;-77
2023/06/22 04:27:47;;;;;;;;;;;;;;;21.27;38.74;100944.19;4913877;28;99917;-76
2023/06/22 04:30:15;;;;;;;;;;;;;;;21.30;38.68;100954.50;4925427;28;98257;-76
2023/06/22 04:32:41;;;;;;;;;;;;;;;21.33;38.79;100968.38;4927486;28;98504;-73
2023/06/22 04:35:08;;;;;;;;;;;;;;;21.36;38.78;100969.66;4924688;28;98001;-74
2023/06/22 04:37:37;;;;;;;;;;;;;;;21.40;38.75;100964.34;4930467;28;98242;-74
2023/06/22 04:40:05;;;;;;;;;;;;;;;21.43;38.90;100971.91;4931244;28;98609;-74
2023/06/22 04:42:33;;;;;;;;;;;;;;;21.48;38.77;100974.47;4942472;28;104115;-77
2023/06/22 04:45:00;;;;;;;;;;;;;;;21.55;38.73;100974.75;4924815;28;98325;-77
2023/06/22 04:47:26;;;;;;;;;;;;;;;21.63;38.78;100962.94;4921104;28;98595;-77
2023/06/22 04:49:55;;;;;;;;;;;;;;;21.72;38.70;100962.91;4934444;28;98300;-77
2023/06/22 04:52:22;;;;;;;;;;;;;;;21.80;38.71;100967.53;4941805;28;98372;-77
2023/06/22 04:54:55;;;;;;;;;;;;;;;21.90;38.66;100974.59;4939958;28;100181;-77
2023/06/22 04:57:32;;;;;;;;;;;;;;;22.00;38.58;100983.22;4947317;28;98371;-74
2023/06/22 05:00:16;;;;;;;;;;;;;;;22.12;38.55;100985.25;4928279;28;101173;-74
2023/06/22 05:02:43;;;;;;;;;;;;;;;22.26;38.54;100990.53;4931174;28;98322;-73
2023/06/22 05:05:13;;;;;;;;;;;;;;;22.39;38.43;100994.16;4938011;28;98336;-77
2023/06/22 05:07:43;;;;;;;;;;;;;;;22.52;38.30;100993.91;4927615;28;98332;-77
2023/06/22 05:10:12;;;;;;;;;;;;;;;22.70;38.28;101000.03;4919475;28;98236;-74
2023/06/22 05:12:39;;;;;;;;;;;;;;;22.89;38.24;100998.75;4945930;28;98459;-79
2023/06/22 05:15:07;;;;;;;;;;;;;;;23.09;38.01;101008.13;4937918;28;98382;-77
2023/06/22 05:17:33;;;;;;;;;;;;;;;23.29;37.82;101007.28;4927681;28;100499;-77
2023/06/22 05:19:59;;;;;;;;;;;;;;;23.48;38.01;101001.25;4926095;28;99371;-77
2023/06/22 05:22:25;;;;;;;;;;;;;;;23.64;38.04;101009.63;4943718;28;100131;-77
2023/06/22 05:24:52;;;;;;;;;;;;;;;23.87;37.91;101008.06;4923975;28;98097;-75
2023/06/22 05:27:19;;;;;;;;;;;;;;;24.22;37.73;101016.63;4934594;28;98219;-74
2023/06/22 05:29:45;;;;;;;;;;;;;;;24.43;37.52;101011.00;4931864;28;98003;-77
2023/06/22 05:32:11;;;;;;;;;;;;;;;24.51;37.50;101013.97;4944324;28;98119;-77
2023/06/22 05:34:39;;;;;;;;;;;;;;;24.51;37.63;101023.03;4943660;28;99101;-75
2023/06/22 05:37:09;;;;;;;;;;;;;;;24.57;37.83;101029.91;4927598;28;98691;-74
2023/06/22 05:39:39;;;;;;;;;;;;;;;24.73;37.67;101030.78;4928192;28;98021;-77
2023/06/22 05:42:07;;;;;;;;;;;;;;;24.94;37.67;101035.28;4930180;28;98832;-73
2023/06/22 05:44:34;;;;;;;;;;;;;;;25.02;37.51;101019.75;4928418;28;98295;-76
2023/06/22 05:47:02;;;;;;;;;;;;;;;25.09;37.43;101023.53;4944707;28;98145;-74
2023/06/22 05:49:32;;;;;;;;;;;;;;;25.30;37.40;101028.81;4928765;28;98392;-72
2023/06/22 05:51:59;;;;;;;;;;;;;;;25.46;37.37;101026.09;4933475;28;98311;-71
2023/06/22 05:54:27;;;;;;;;;;;;;;;25.55;37.67;101026.72;4932042;28;98474;-74
2023/06/22 05:56:53;;;;;;;;;;;;;;;25.69;37.72;101029.84;4926649;28;106911;-73
2023/06/22 05:59:19;;;;;;;;;;;;;;;25.87;37.53;101027.56;4945343;28;100177;-76
2023/06/22 06:01:49;;;;;;;;;;;;;;;25.94;37.88;101021.41;4922450;28;99168;-75
2023/06/22 06:04:18;;;;;;;;;;;;;;;26.01;37.59;101018.00;4930390;28;100002;-75
2023/06/22 06:06:44;;;;;;;;;;;;;;;26.23;37.49;101016.53;4944485;28;103407;-73
2023/06/22 06:09:11;;;;;;;;;;;;;;;26.80;36.85;101015.81;4927788;28;112871;-72
2023/06/22 06:11:37;;;;;;;;;;;;;;;27.03;37.01;101015.06;4926793;28;98240;-75
2023/06/22 06:14:03;;;;;;;;;;;;;;;27.86;36.22;101021.72;4921183;28;103854;-76
2023/06/22 06:16:30;;;;;;;;;;;;;;;28.44;36.08;101012.28;4927820;28;104935;-73
2023/06/22 06:18:56;;;;;;;;;;;;;;;28.79;36.08;101006.38;4930947;28;98103;-73
2023/06/22 06:21:22;;;;;;;;;;;;;;;29.32;36.18;101016.50;4930569;28;98592;-73
2023/06/22 06:23:49;;;;;;;;;;;;;;;29.91;36.06;101005.47;4945864;28;98222;-75
2023/06/22 06:26:16;;;;;;;;;;;;;;;30.56;35.53;100993.56;4927393;28;98048;-73
2023/06/22 06:28:43;;;;;;;;;;;;;;;31.74;34.77;100986.22;4928282;28;98202;-76
2023/06/22 06:31:09;;;;;;;;;;;;;;;32.05;35.19;100978.25;4936041;28;98396;-73
2023/06/22 06:33:36;;;;;;;;;;;;;;;32.34;35.08;100976.16;4942071;28;98333;-75
2023/06/22 06:36:03;;;;;;;;;;;;;;;32.70;34.79;100974.03;4920416;28;98130;-75
2023/06/22 06:38:33;;;;;;;;;;;;;;;33.08;34.64;100959.47;4926669;28;98010;-74
2023/06/22 06:40:59;;;;;;;;;;;;;;;33.34;34.58;100956.09;4926720;28;98070;-72
2023/06/22 06:43:26;;;;;;;;;;;;;;;33.68;34.43;100953.41;4944091;28;97842;-73
2023/06/22 06:45:53;;;;;;;;;;;;;;;34.08;34.27;100944.63;4928016;28;100290;-73
2023/06/22 06:48:19;;;;;;;;;;;;;;;33.71;35.08;100946.19;4926585;28;99573;-74
2023/06/22 06:50:45;;;;;;;;;;;;;;;33.61;35.32;100945.09;4937537;28;98664;-74
2023/06/22 06:53:11;;;;;;;;;;;;;;;33.29;35.59;100928.63;4938454;28;98316;-73
2023/06/22 06:55:37;;;;;;;;;;;;;;;33.50;34.87;100927.66;4942066;28;98677;-75
2023/06/22 06:58:07;;;;;;;;;;;;;;;34.07;34.65;100915.06;4938543;28;98275;-75
2023/06/22 07:00:33;;;;;;;;;;;;;;;34.41;34.36;100917.84;4941417;28;98786;-74
2023/06/22 07:02:59;;;;;;;;;;;;;;;34.86;34.00;100915.63;4960012;28;98154;-72
2023/06/22 07:05:28;;;;;;;;;;;;;;;35.40;33.88;100914.75;4940653;28;99451;-72
2023/06/22 07:07:54;;;;;;;;;;;;;;;35.92;33.63;100919.78;4924354;28;98375;-73
2023/06/22 07:10:20;;;;;;;;;;;;;;;35.12;34.51;100914.03;4929673;28;99184;-74
2023/06/22 07:12:47;;;;;;;;;;;;;;;35.39;34.19;100919.56;4944110;28;98129;-74
2023/06/22 07:15:13;;;;;;;;;;;;;;;35.88;33.86;100919.91;4938335;28;98282;-74
2023/06/22 07:17:42;;;;;;;;;;;;;;;36.25;33.52;100934.78;4929410;28;97986;-73
2023/06/22 07:20:10;;;;;;;;;;;;;;;36.57;33.64;100936.13;4941807;28;98321;-74
2023/06/22 07:22:38;;;;;;;;;;;;;;;36.84;33.72;100924.69;4928077;28;97787;-73
2023/06/22 07:25:13;;;;;;;;;;;;;;;37.07;33.01;100930.16;4917532;28;98198;-73
2023/06/22 07:27:43;;;;;;;;;;;;;;;37.10;33.33;100929.28;4926320;28;98138;-73
2023/06/22 07:30:10;;;;;;;;;;;;;;;37.49;33.25;100929.53;4941195;28;98107;-73
2023/06/22 07:32:36;;;;;;;;;;;;;;;37.85;32.94;100918.09;4925003;28;99630;-72
2023/06/22 07:35:06;;;;;;;;;;;;;;;38.15;33.06;100918.88;4920282;28;99254;-73
2023/06/22 07:37:33;;;;;;;;;;;;;;;38.43;32.48;100922.88;4937410;28;98171;-73
2023/06/22 07:40:00;;;;;;;;;;;;;;;38.78;32.64;100920.97;4924790;28;98478;-73
2023/06/22 07:42:26;;;;;;;;;;;;;;;38.80;32.64;100921.34;4924893;28;98255;-73
2023/06/22 07:44:54;;;;;;;;;;;;;;;39.13;32.59;100921.84;4926737;28;98355;-73
2023/06/22 07:47:25;;;;;;;;;;;;;;;39.56;32.24;100923.22;4938625;28;98531;-74
2023/06/22 07:49:54;;;;;;;;;;;;;;;40.06;32.05;100926.28;4920501;28;99386;-74
2023/06/22 07:52:21;;;;;;;;;;;;;;;40.66;31.73;100917.53;4926481;28;98286;-74
2023/06/22 07:54:47;;;;;;;;;;;;;;;40.56;32.03;100918.75;4926482;28;98451;-73
2023/06/22 07:57:14;;;;;;;;;;;;;;;41.24;31.52;100913.94;4925478;28;98485;-74
2023/06/22 07:59:41;;;;;;;;;;;;;;;41.82;31.17;100921.53;4928250;28;98878;-74
2023/06/22 08:02:09;;;;;;;;;;;;;;;42.31;31.00;100909.16;4930100;28;98551;-73
2023/06/22 08:04:35;;;;;;;;;;;;;;;42.64;31.25;100906.38;4929077;28;98401;-74
2023/06/22 08:07:01;;;;;;;;;;;;;;;42.44;31.53;100900.47;4929262;27;100174;-74
2023/06/22 08:09:33;;;;;;;;;;;;;;;43.37;30.97;100901.53;4925192;27;98069;-75
2023/06/22 08:11:59;;;;;;;;;;;;;;;41.56;32.44;100903.31;4928178;27;98226;-74
2023/06/22 08:14:30;;;;;;;;;;;;;;;43.37;30.80;100899.47;4935768;28;98983;-74
2023/06/22 08:16:56;;;;;;;;;;;;;;;43.93;30.37;100902.63;4952454;27;98233;-74
2023/06/22 08:19:22;;;;;;;;;;;;;;;44.33;30.32;100901.22;4931020;28;98818;-74
2023/06/22 08:21:50;;;;;;;;;;;;;;;44.04;30.48;100891.47;4950983;27;98066;-74
2023/06/22 08:24:16;;;;;;;;;;;;;;;44.54;30.27;100897.19;4933911;28;98772;-74
2023/06/22 08:26:42;;;;;;;;;;;;;;;42.24;32.43;100884.03;4934969;28;97868;-74
2023/06/22 08:29:09;;;;;;;;;;;;;;;41.30;32.77;100888.66;4933313;28;98310;-74
2023/06/22 08:31:35;;;;;;;;;;;;;;;40.05;33.76;100880.38;4934590;28;98182;-74
2023/06/22 08:34:01;;;;;;;;;;;;;;;39.18;34.35;100870.56;4929743;27;98851;-74
2023/06/22 08:36:32;;;;;;;;;;;;;;;40.03;33.34;100879.25;4934208;28;98052;-74
2023/06/22 08:39:01;;;;;;;;;;;;;;;39.36;33.83;100874.81;4950321;27;98451;-74
2023/06/22 08:41:27;;;;;;;;;;;;;;;39.46;33.58;100868.81;4935558;27;98246;-74
2023/06/22 08:43:53;;;;;;;;;;;;;;;39.41;33.40;100874.22;4946647;28;98364;-75
2023/06/22 08:46:23;;;;;;;;;;;;;;;39.58;33.05;100863.56;4934682;28;99411;-74
2023/06/22 08:48:50;;;;;;;;;;;;;;;40.40;32.53;100874.59;4931780;27;97983;-74
2023/06/22 08:51:17;;;;;;;;;;;;;;;40.19;32.75;100871.34;4933062;28;98562;-76
2023/06/22 08:53:45;;;;;;;;;;;;;;;40.05;32.77;100868.28;4930194;28;98338;-74
2023/06/22 08:56:11;;;;;;;;;;;;;;;40.01;32.84;100882.53;4933372;28;98149;-74
2023/06/22 08:58:37;;;;;;;;;;;;;;;40.49;32.48;100881.06;4931236;27;98259;-74
2023/06/22 09:01:04;;;;;;;;;;;;;;;42.86;30.70;100874.94;4937210;28;98242;-74
2023/06/22 09:03:32;;;;;;;;;;;;;;;44.18;29.75;100875.69;4935114;27;99643;-73
2023/06/22 09:05:58;;;;;;;;;;;;;;;42.92;31.30;100868.59;4937004;27;98894;-75
2023/06/22 09:08:24;;;;;;;;;;;;;;;43.20;31.12;100861.50;4933483;28;99034;-74
2023/06/22 09:10:51;;;;;;;;;;;;;;;43.50;30.94;100859.50;4936145;27;98016;-74
2023/06/22 09:13:17;;;;;;;;;;;;;;;43.74;30.72;100859.44;4934000;27;98359;-74
2023/06/22 09:15:43;;;;;;;;;;;;;;;43.96;30.43;100861.91;4935827;27;97994;-73
2023/06/22 09:18:14;;;;;;;;;;;;;;;45.58;29.28;100859.75;4962527;28;98463;-74
2023/06/22 09:20:40;;;;;;;;;;;;;;;45.59;29.38;100861.31;4949533;28;98733;-74
2023/06/22 09:23:06;;;;;;;;;;;;;;;43.83;31.16;100852.91;4932569;28;128155;-74
2023/06/22 09:25:33;;;;;;;;;;;;;;;43.03;31.98;100846.94;4928933;28;117733;-74
2023/06/22 09:27:59;;;;;;;;;;;;;;;42.23;32.28;100842.81;4948914;27;98102;-74
2023/06/22 09:30:25;;;;;;;;;;;;;;;43.34;31.50;100838.03;4929391;27;98544;-73
2023/06/22 09:32:52;;;;;;;;;;;;;;;42.13;32.32;100841.25;4931151;28;100132;-74
2023/06/22 09:35:18;;;;;;;;;;;;;;;42.75;31.75;100839.91;4932149;28;98065;-74
2023/06/22 09:37:44;;;;;;;;;;;;;;;44.09;30.55;100845.34;4948371;27;97981;-74
2023/06/22 09:40:12;;;;;;;;;;;;;;;43.85;30.91;100841.81;4933147;28;98134;-74
2023/06/22 09:42:38;;;;;;;;;;;;;;;45.52;29.56;100841.88;4943925;27;98225;-74
2023/06/22 09:45:05;;;;;;;;;;;;;;;46.39;28.79;100837.94;4944802;28;98256;-74
2023/06/22 09:47:31;;;;;;;;;;;;;;;46.34;29.24;100839.47;4931495;28;98027;-73
2023/06/22 09:49:59;;;;;;;;;;;;;;;43.91;31.19;100830.59;4941714;28;100000;-75
2023/06/22 09:52:25;;;;;;;;;;;;;;;45.19;30.11;100828.81;4947590;28;98327;-74
2023/06/22 09:54:51;;;;;;;;;;;;;;;42.92;31.97;100818.41;4942427;27;98648;-74
2023/06/22 09:57:18;;;;;;;;;;;;;;;44.21;30.72;100815.06;4930540;28;111196;-74
2023/06/22 09:59:44;;;;;;;;;;;;;;;46.02;29.32;100830.94;4950170;27;98136;-72
2023/06/22 10:02:10;;;;;;;;;;;;;;;47.14;28.68;100824.31;4934223;27;100491;-74
2023/06/22 10:04:36;;;;;;;;;;;;;;;47.86;28.51;100826.50;4928972;27;97973;-74
2023/06/22 10:07:03;;;;;;;;;;;;;;;48.36;28.18;100828.53;4935408;28;98090;-74
2023/06/22 10:09:32;;;;;;;;;;;;;;;45.71;30.58;100820.31;4937478;28;98516;-74
2023/06/22 10:11:59;;;;;;;;;;;;;;;43.95;31.93;100817.00;4936351;28;98135;-72
2023/06/22 10:14:27;;;;;;;;;;;;;;;42.99;32.22;100800.22;4922808;28;99728;-73
2023/06/22 10:16:53;;;;;;;;;;;;;;;42.32;32.94;100799.53;4923229;28;98307;-74
2023/06/22 10:19:19;;;;;;;;;;;;;;;42.27;32.20;100805.88;4929701;27;97961;-74
2023/06/22 10:21:45;;;;;;;;;;;;;;;42.76;31.70;100807.47;4945473;27;98749;-73
2023/06/22 10:24:11;;;;;;;;;;;;;;;41.67;32.81;100801.78;4930537;28;127672;-73
2023/06/22 10:26:38;;;;;;;;;;;;;;;41.61;32.20;100798.03;4947773;27;98196;-73
2023/06/22 10:29:04;;;;;;;;;;;;;;;40.79;33.08;100798.78;4924883;27;98120;-74
2023/06/22 10:31:30;;;;;;;;;;;;;;;40.46;33.08;100794.47;4931458;28;100260;-73
2023/06/22 10:33:57;;;;;;;;;;;;;;;39.68;33.89;100783.47;4928409;27;98363;-73
2023/06/22 10:36:25;;;;;;;;;;;;;;;39.65;33.73;100784.34;4925507;28;98023;-73
2023/06/22 10:38:52;;;;;;;;;;;;;;;40.76;32.44;100800.53;4965224;27;98424;-73
2023/06/22 10:41:18;;;;;;;;;;;;;;;41.96;31.13;100778.63;4929065;28;98412;-72
2023/06/22 10:43:44;;;;;;;;;;;;;;;43.24;30.41;100784.78;4926438;27;99517;-74
2023/06/22 10:46:10;;;;;;;;;;;;;;;44.13;29.94;100784.75;4927580;28;98340;-73
2023/06/22 10:48:36;;;;;;;;;;;;;;;44.94;29.40;100781.22;4924526;28;98131;-73
2023/06/22 10:51:02;;;;;;;;;;;;;;;45.23;29.48;100786.72;4928025;28;99618;-74
2023/06/22 10:53:29;;;;;;;;;;;;;;;45.75;29.32;100783.09;4941109;28;101098;-73
2023/06/22 10:55:55;;;;;;;;;;;;;;;46.34;29.17;100781.72;4925679;27;98364;-74
2023/06/22 10:58:22;;;;;;;;;;;;;;;46.46;28.80;100777.66;4928593;27;108954;-73
2023/06/22 11:00:48;;;;;;;;;;;;;;;46.51;28.89;100774.81;4928058;27;98117;-72
2023/06/22 11:03:15;;;;;;;;;;;;;;;44.64;30.90;100766.38;4930001;27;98098;-72
2023/06/22 11:05:43;;;;;;;;;;;;;;;46.22;29.47;100760.94;4928066;28;98151;-75
2023/06/22 11:08:09;;;;;;;;;;;;;;;46.60;28.76;100742.50;4924404;27;98005;-74
2023/06/22 11:10:35;;;;;;;;;;;;;;;46.71;29.08;100739.69;4963939;27;98366;-73
2023/06/22 11:13:04;;;;;;;;;;;;;;;46.89;29.17;100746.19;4945970;27;98078;-76
2023/06/22 11:15:30;;;;;;;;;;;;;;;44.28;31.17;100738.03;4931120;27;99692;-73
2023/06/22 11:17:56;;;;;;;;;;;;;;;43.43;31.61;100725.81;4943702;28;99925;-73
2023/06/22 11:20:22;;;;;;;;;;;;;;;45.43;29.78;100736.78;4929776;28;98596;-75
2023/06/22 11:22:48;;;;;;;;;;;;;;;45.70;29.55;100729.75;4945549;27;100206;-73
2023/06/22 11:25:15;;;;;;;;;;;;;;;45.89;29.51;100733.81;4942898;27;98174;-73
2023/06/22 11:27:41;;;;;;;;;;;;;;;45.74;29.48;100719.69;4948375;27;98357;-72
2023/06/22 11:30:07;;;;;;;;;;;;;;;44.69;30.48;100718.19;4928677;28;99644;-72
2023/06/22 11:32:34;;;;;;;;;;;;;;;44.96;30.12;100724.66;4930553;27;98180;-74
2023/06/22 11:35:00;;;;;;;;;;;;;;;43.12;31.83;100721.44;4931671;28;98894;-74
2023/06/22 11:37:26;;;;;;;;;;;;;;;41.99;32.85;100715.41;4948562;28;120547;-72
2023/06/22 11:39:54;;;;;;;;;;;;;;;42.30;31.70;100709.44;4928714;27;98858;-73
2023/06/22 11:42:21;;;;;;;;;;;;;;;43.00;31.33;100711.91;4930273;28;98043;-73
2023/06/22 11:44:47;;;;;;;;;;;;;;;43.22;31.22;100719.25;4928957;28;99366;-73
2023/06/22 11:47:13;;;;;;;;;;;;;;;43.30;30.97;100714.78;4942286;28;98054;-74
2023/06/22 11:49:40;;;;;;;;;;;;;;;43.67;31.14;100715.16;4928238;27;118505;-73
2023/06/22 11:52:06;;;;;;;;;;;;;;;43.73;30.74;100710.34;4947149;28;98106;-74
2023/06/22 11:54:33;;;;;;;;;;;;;;;43.73;30.65;100706.72;4924757;28;98051;-74
2023/06/22 11:56:59;;;;;;;;;;;;;;;43.69;31.19;100703.31;4927944;27;98104;-72
2023/06/22 11:59:25;;;;;;;;;;;;;;;43.59;30.81;100697.78;4928602;28;99704;-74
2023/06/22 12:01:51;;;;;;;;;;;;;;;43.48;30.86;100693.97;4940403;27;116839;-74
2023/06/22 12:04:17;;;;;;;;;;;;;;;43.51;31.28;100704.31;4928118;28;98500;-73
2023/06/22 12:06:44;;;;;;;;;;;;;;;43.62;31.04;100693.94;4945086;28;99693;-73
2023/06/22 12:09:10;;;;;;;;;;;;;;;43.13;31.55;100691.81;4930370;28;98062;-72
2023/06/22 12:11:37;;;;;;;;;;;;;;;42.30;31.84;100686.81;4932282;27;97975;-73
2023/06/22 12:14:03;;;;;;;;;;;;;;;41.65;32.15;100669.34;4944766;27;98412;-73
2023/06/22 12:16:29;;;;;;;;;;;;;;;42.28;31.39;100674.38;4946629;27;98231;-73
2023/06/22 12:18:55;;;;;;;;;;;;;;;41.87;31.75;100674.75;4922603;27;98495;-73
2023/06/22 12:21:21;;;;;;;;;;;;;;;41.13;32.46;100677.03;4923256;27;99629;-73
2023/06/22 12:23:47;;;;;;;;;;;;;;;40.47;32.76;100654.88;4929873;27;99075;-73
2023/06/22 12:26:13;;;;;;;;;;;;;;;40.10;32.94;100673.78;4926192;28;111381;-72
2023/06/22 12:28:39;;;;;;;;;;;;;;;40.30;32.60;100672.59;4943889;27;129437;-73
2023/06/22 12:31:05;;;;;;;;;;;;;;;39.76;32.98;100669.13;4920184;28;99858;-73
2023/06/22 12:33:31;;;;;;;;;;;;;;;40.25;32.26;100674.00;4930188;27;98350;-72
2023/06/22 12:35:58;;;;;;;;;;;;;;;40.57;31.97;100660.59;4933485;28;100469;-73
2023/06/22 12:38:25;;;;;;;;;;;;;;;40.85;31.81;100658.53;4946389;27;98035;-73